OAHR

Herat Airport

Afghanistan
TAF AMD OAHR 170300Z 1703/1724 07006KT 9999 VCSH SCT070 BKN090 WS020/18035KT TEMPO 1703/1706 8000 SHRA BKN070 OVC090 BECMG 1706/1708 17012G22KT 9000 SCT090 TEMPO 1708/1712 18020G30KT 5000 BLDU BECMG 1716/1718 18020KT 9999 VCSH SCT060 BKN090 TEMPO 1718/1723 6000 SHRA BKN060 OVC090
Issued Valid From Valid To
Jan-17 @ 03:00 UTC
(2 hours ago)
Jan-17 @ 03:00 UTC
(2 hours ago)
Jan-18 @ 00:00 UTC
(in 19 hours)
Jan-17 @ 03:00 to Jan-17 @ 06:00
TAF AMD OAHR 170300Z 1703/1724 07006KT 9999 VCSH SCT070 BKN090 WS020/18035KT
Wind Visibility Clouds
70° at 6 knots
 Wind shear 2,000' AGL from 180° at 35 knots
10,000+ meters
  • Scattered at 7,000' AGL
  • Broken at 9,000' AGL
Temporary Jan-17 @ 03:00 to Jan-17 @ 06:00
TEMPO 1703/1706 8000 SHRA BKN070 OVC090
Visibility Clouds Conditions
7,998 meters
  • Broken at 7,000' AGL
  • Overcast at 9,000' AGL
  • Rain
Becoming Jan-17 @ 06:00 to Jan-17 @ 16:00
BECMG 1706/1708 17012G22KT 9000 SCT090
Wind Visibility Clouds
170° at 12 knots
 Gusting to 22 knots
8,996 meters
  • Scattered at 9,000' AGL
Temporary Jan-17 @ 08:00 to Jan-17 @ 12:00
TEMPO 1708/1712 18020G30KT 5000 BLDU
Wind Visibility Conditions
180° at 20 knots
 Gusting to 30 knots
5,005 meters
  • Blowing
  • Dust
Becoming Jan-17 @ 16:00 to Jan-18 @ 00:00
BECMG 1716/1718 18020KT 9999 VCSH SCT060 BKN090
Wind Visibility Clouds
180° at 20 knots 10,000+ meters
  • Scattered at 6,000' AGL
  • Broken at 9,000' AGL
Temporary Jan-17 @ 18:00 to Jan-17 @ 23:00
TEMPO 1718/1723 6000 SHRA BKN060 OVC090
Visibility Clouds Conditions
6,003 meters
  • Broken at 6,000' AGL
  • Overcast at 9,000' AGL
  • Rain
TAF AMD OAHR 170300Z 1703/1724 07006KT 9999 VCSH SCT070 BKN090 WS020/18035KT TEMPO 1703/1706 8000 SHRA BKN070 OVC090 BECMG 1706/1708 17012G22KT 9000 SCT090 TEMPO 1708/1712 18020G30KT 5000 BLDU BECMG 1716/1718 18020KT 9999 VCSH SCT060 BKN090 TEMPO 1718/1723 6000 SHRA BKN060 OVC090
Issued Jan-17 @ 03:00 UTC
(2 hours ago)
Valid From Jan-17 @ 03:00 UTC
(2 hours ago)
Valid To Jan-18 @ 00:00 UTC
(in 19 hours)
Jan-17 @ 03:00 - Jan-17 @ 06:00
Wind Visibility
70° at 6 knots 10,000+ meters
Clouds
  • Scattered at 7,000' AGL
  • Broken at 9,000' AGL
Temporary Jan-17 @ 03:00 - Jan-17 @ 06:00
Clouds
  • Broken at 7,000' AGL
  • Overcast at 9,000' AGL
Conditions
  • Rain
Becoming Jan-17 @ 06:00 - Jan-17 @ 16:00
Wind Visibility
170° at 12 knots
 Gusting to 22 knots
8,996 meters
Clouds
  • Scattered at 9,000' AGL
Temporary Jan-17 @ 08:00 - Jan-17 @ 12:00
Wind Visibility
180° at 20 knots
 Gusting to 30 knots
5,005 meters
Conditions
  • Blowing
  • Dust
Becoming Jan-17 @ 16:00 - Jan-18 @ 00:00
Wind Visibility
180° at 20 knots 10,000+ meters
Clouds
  • Scattered at 6,000' AGL
  • Broken at 9,000' AGL
Temporary Jan-17 @ 18:00 - Jan-17 @ 23:00
Clouds
  • Broken at 6,000' AGL
  • Overcast at 9,000' AGL
Conditions
  • Rain